sensor_id;sensor_type;location;lat;lon;timestamp;P1;durP1;ratioP1;P2;durP2;ratioP2
12663;SDS011;6396;58.490;15.528;2023-01-26T00:02:00;3.17;;;2.77;;
12663;SDS011;6396;58.490;15.528;2023-01-26T00:04:29;2.90;;;2.70;;
12663;SDS011;6396;58.490;15.528;2023-01-26T00:06:56;3.13;;;2.30;;
12663;SDS011;6396;58.490;15.528;2023-01-26T00:09:23;3.27;;;2.50;;
12663;SDS011;6396;58.490;15.528;2023-01-26T00:11:50;3.20;;;2.80;;
12663;SDS011;6396;58.490;15.528;2023-01-26T00:14:17;3.87;;;3.03;;
12663;SDS011;6396;58.490;15.528;2023-01-26T00:16:45;3.30;;;2.97;;
12663;SDS011;6396;58.490;15.528;2023-01-26T00:19:12;3.70;;;3.10;;
12663;SDS011;6396;58.490;15.528;2023-01-26T00:21:40;3.10;;;2.90;;
12663;SDS011;6396;58.490;15.528;2023-01-26T00:24:07;4.00;;;2.90;;
12663;SDS011;6396;58.490;15.528;2023-01-26T00:26:34;3.30;;;2.67;;
12663;SDS011;6396;58.490;15.528;2023-01-26T00:29:01;3.30;;;2.93;;
12663;SDS011;6396;58.490;15.528;2023-01-26T00:31:28;3.50;;;3.10;;
12663;SDS011;6396;58.490;15.528;2023-01-26T00:33:55;4.27;;;2.77;;
12663;SDS011;6396;58.490;15.528;2023-01-26T00:36:22;3.63;;;3.13;;
12663;SDS011;6396;58.490;15.528;2023-01-26T00:38:51;2.93;;;2.63;;
12663;SDS011;6396;58.490;15.528;2023-01-26T00:41:18;3.17;;;2.80;;
12663;SDS011;6396;58.490;15.528;2023-01-26T00:44:04;3.70;;;3.27;;
12663;SDS011;6396;58.490;15.528;2023-01-26T00:46:34;4.07;;;3.57;;
12663;SDS011;6396;58.490;15.528;2023-01-26T00:49:08;3.67;;;3.33;;
12663;SDS011;6396;58.490;15.528;2023-01-26T00:51:37;4.40;;;3.73;;
12663;SDS011;6396;58.490;15.528;2023-01-26T01:38:27;3.70;;;3.30;;
12663;SDS011;6396;58.490;15.528;2023-01-26T01:41:18;5.73;;;3.77;;
12663;SDS011;6396;58.490;15.528;2023-01-26T01:44:13;3.77;;;3.27;;
12663;SDS011;6396;58.490;15.528;2023-01-26T01:46:58;4.40;;;3.13;;
12663;SDS011;6396;58.490;15.528;2023-01-26T01:49:31;5.83;;;3.87;;
12663;SDS011;6396;58.490;15.528;2023-01-26T01:52:05;4.37;;;3.57;;
12663;SDS011;6396;58.490;15.528;2023-01-26T01:54:40;4.83;;;3.77;;
12663;SDS011;6396;58.490;15.528;2023-01-26T01:57:28;4.37;;;3.67;;
12663;SDS011;6396;58.490;15.528;2023-01-26T02:04:02;4.83;;;3.87;;
12663;SDS011;6396;58.490;15.528;2023-01-26T02:06:54;5.23;;;3.57;;
12663;SDS011;6396;58.490;15.528;2023-01-26T02:22:57;4.77;;;3.40;;
12663;SDS011;6396;58.490;15.528;2023-01-26T02:29:12;4.73;;;3.60;;
12663;SDS011;6396;58.490;15.528;2023-01-26T02:31:40;4.63;;;3.90;;
12663;SDS011;6396;58.490;15.528;2023-01-26T02:35:05;6.13;;;3.87;;
12663;SDS011;6396;58.490;15.528;2023-01-26T02:37:33;3.93;;;3.40;;
12663;SDS011;6396;58.490;15.528;2023-01-26T02:40:18;5.10;;;3.30;;
12663;SDS011;6396;58.490;15.528;2023-01-26T02:43:59;4.47;;;3.90;;
12663;SDS011;6396;58.490;15.528;2023-01-26T04:05:12;6.20;;;4.70;;
12663;SDS011;6396;58.490;15.528;2023-01-26T04:08:00;6.47;;;5.07;;
12663;SDS011;6396;58.490;15.528;2023-01-26T04:11:01;8.47;;;4.80;;
12663;SDS011;6396;58.490;15.528;2023-01-26T04:13:36;7.23;;;5.30;;
12663;SDS011;6396;58.490;15.528;2023-01-26T04:19:23;8.60;;;5.70;;
12663;SDS011;6396;58.490;15.528;2023-01-26T04:22:11;8.33;;;5.27;;
12663;SDS011;6396;58.490;15.528;2023-01-26T04:28:15;8.67;;;5.23;;
12663;SDS011;6396;58.490;15.528;2023-01-26T04:31:07;10.20;;;5.47;;
12663;SDS011;6396;58.490;15.528;2023-01-26T04:33:49;8.03;;;5.63;;
12663;SDS011;6396;58.490;15.528;2023-01-26T04:36:24;8.73;;;5.43;;
12663;SDS011;6396;58.490;15.528;2023-01-26T04:38:57;9.33;;;5.00;;
12663;SDS011;6396;58.490;15.528;2023-01-26T04:41:33;10.97;;;5.50;;
12663;SDS011;6396;58.490;15.528;2023-01-26T04:44:02;8.57;;;4.83;;
12663;SDS011;6396;58.490;15.528;2023-01-26T04:46:29;7.50;;;5.10;;
12663;SDS011;6396;58.490;15.528;2023-01-26T04:48:57;8.70;;;5.20;;
12663;SDS011;6396;58.490;15.528;2023-01-26T04:51:25;8.77;;;5.07;;
12663;SDS011;6396;58.490;15.528;2023-01-26T04:53:53;12.33;;;5.27;;
12663;SDS011;6396;58.490;15.528;2023-01-26T05:05:51;9.07;;;5.07;;
12663;SDS011;6396;58.490;15.528;2023-01-26T05:08:20;9.17;;;4.67;;
12663;SDS011;6396;58.490;15.528;2023-01-26T05:10:48;7.97;;;4.97;;
12663;SDS011;6396;58.490;15.528;2023-01-26T05:13:16;8.93;;;4.70;;
12663;SDS011;6396;58.490;15.528;2023-01-26T05:19:03;7.53;;;4.73;;
12663;SDS011;6396;58.490;15.528;2023-01-26T05:21:30;6.67;;;4.43;;
12663;SDS011;6396;58.490;15.528;2023-01-26T05:23:57;6.37;;;4.37;;
12663;SDS011;6396;58.490;15.528;2023-01-26T05:26:40;8.10;;;4.60;;
12663;SDS011;6396;58.490;15.528;2023-01-26T05:29:22;7.80;;;4.93;;
12663;SDS011;6396;58.490;15.528;2023-01-26T05:32:04;6.87;;;4.67;;
12663;SDS011;6396;58.490;15.528;2023-01-26T05:34:33;11.57;;;5.33;;
12663;SDS011;6396;58.490;15.528;2023-01-26T05:37:00;9.83;;;5.13;;
12663;SDS011;6396;58.490;15.528;2023-01-26T05:39:27;6.23;;;4.57;;
12663;SDS011;6396;58.490;15.528;2023-01-26T05:41:54;10.67;;;5.03;;
12663;SDS011;6396;58.490;15.528;2023-01-26T05:44:21;7.33;;;5.33;;
12663;SDS011;6396;58.490;15.528;2023-01-26T05:46:48;7.50;;;4.63;;
12663;SDS011;6396;58.490;15.528;2023-01-26T05:49:15;7.37;;;4.47;;
12663;SDS011;6396;58.490;15.528;2023-01-26T05:51:44;5.07;;;4.30;;
12663;SDS011;6396;58.490;15.528;2023-01-26T05:54:10;9.60;;;4.27;;
12663;SDS011;6396;58.490;15.528;2023-01-26T05:56:37;9.43;;;4.50;;
12663;SDS011;6396;58.490;15.528;2023-01-26T05:59:04;11.07;;;4.40;;
12663;SDS011;6396;58.490;15.528;2023-01-26T06:01:46;7.10;;;4.00;;
12663;SDS011;6396;58.490;15.528;2023-01-26T06:04:30;5.67;;;4.10;;
12663;SDS011;6396;58.490;15.528;2023-01-26T06:07:35;5.60;;;4.10;;
12663;SDS011;6396;58.490;15.528;2023-01-26T06:10:03;10.93;;;4.67;;
12663;SDS011;6396;58.490;15.528;2023-01-26T06:12:32;9.93;;;4.83;;
12663;SDS011;6396;58.490;15.528;2023-01-26T06:15:03;8.43;;;4.53;;
12663;SDS011;6396;58.490;15.528;2023-01-26T06:17:31;9.27;;;5.10;;
12663;SDS011;6396;58.490;15.528;2023-01-26T06:20:01;8.10;;;4.80;;
12663;SDS011;6396;58.490;15.528;2023-01-26T06:22:30;9.53;;;5.23;;
12663;SDS011;6396;58.490;15.528;2023-01-26T06:24:58;9.27;;;5.10;;
12663;SDS011;6396;58.490;15.528;2023-01-26T06:27:25;10.37;;;5.43;;
12663;SDS011;6396;58.490;15.528;2023-01-26T06:29:53;10.73;;;5.50;;
12663;SDS011;6396;58.490;15.528;2023-01-26T06:32:23;9.20;;;5.73;;
12663;SDS011;6396;58.490;15.528;2023-01-26T06:35:01;6.87;;;5.07;;
12663;SDS011;6396;58.490;15.528;2023-01-26T06:37:30;7.63;;;4.80;;
12663;SDS011;6396;58.490;15.528;2023-01-26T06:40:04;7.30;;;5.27;;
12663;SDS011;6396;58.490;15.528;2023-01-26T06:42:45;7.63;;;5.17;;
12663;SDS011;6396;58.490;15.528;2023-01-26T06:45:14;9.93;;;5.47;;
12663;SDS011;6396;58.490;15.528;2023-01-26T06:47:44;7.63;;;4.63;;
12663;SDS011;6396;58.490;15.528;2023-01-26T06:50:13;5.77;;;4.40;;
12663;SDS011;6396;58.490;15.528;2023-01-26T06:52:41;7.47;;;4.83;;
12663;SDS011;6396;58.490;15.528;2023-01-26T06:55:15;8.13;;;4.73;;
12663;SDS011;6396;58.490;15.528;2023-01-26T06:57:44;9.03;;;5.30;;
12663;SDS011;6396;58.490;15.528;2023-01-26T07:00:11;8.13;;;4.63;;
12663;SDS011;6396;58.490;15.528;2023-01-26T07:02:38;8.13;;;4.37;;
12663;SDS011;6396;58.490;15.528;2023-01-26T07:05:05;5.83;;;4.33;;
12663;SDS011;6396;58.490;15.528;2023-01-26T07:07:33;4.83;;;3.97;;
12663;SDS011;6396;58.490;15.528;2023-01-26T07:09:59;4.93;;;3.60;;
12663;SDS011;6396;58.490;15.528;2023-01-26T07:12:37;8.90;;;3.93;;
12663;SDS011;6396;58.490;15.528;2023-01-26T07:15:05;5.37;;;3.80;;
12663;SDS011;6396;58.490;15.528;2023-01-26T07:17:32;4.37;;;3.27;;
12663;SDS011;6396;58.490;15.528;2023-01-26T07:19:59;4.83;;;3.40;;
12663;SDS011;6396;58.490;15.528;2023-01-26T07:22:26;6.37;;;2.90;;
12663;SDS011;6396;58.490;15.528;2023-01-26T07:24:52;5.43;;;2.77;;
12663;SDS011;6396;58.490;15.528;2023-01-26T07:27:19;3.97;;;2.93;;
12663;SDS011;6396;58.490;15.528;2023-01-26T07:29:48;3.40;;;2.07;;
12663;SDS011;6396;58.490;15.528;2023-01-26T07:32:15;3.37;;;1.93;;
12663;SDS011;6396;58.490;15.528;2023-01-26T07:34:42;3.47;;;1.90;;
12663;SDS011;6396;58.490;15.528;2023-01-26T07:37:09;1.97;;;1.67;;
12663;SDS011;6396;58.490;15.528;2023-01-26T07:39:35;3.07;;;1.50;;
12663;SDS011;6396;58.490;15.528;2023-01-26T07:42:02;1.60;;;1.37;;
12663;SDS011;6396;58.490;15.528;2023-01-26T07:44:29;2.60;;;1.40;;
12663;SDS011;6396;58.490;15.528;2023-01-26T07:46:57;1.70;;;1.60;;
12663;SDS011;6396;58.490;15.528;2023-01-26T07:49:24;1.47;;;1.20;;
12663;SDS011;6396;58.490;15.528;2023-01-26T07:51:51;1.03;;;1.00;;
12663;SDS011;6396;58.490;15.528;2023-01-26T07:54:18;1.10;;;1.00;;
12663;SDS011;6396;58.490;15.528;2023-01-26T07:56:57;1.20;;;1.10;;
12663;SDS011;6396;58.490;15.528;2023-01-26T07:59:38;1.00;;;1.00;;
12663;SDS011;6396;58.490;15.528;2023-01-26T08:02:07;2.07;;;1.10;;
12663;SDS011;6396;58.490;15.528;2023-01-26T08:04:35;1.30;;;0.90;;
12663;SDS011;6396;58.490;15.528;2023-01-26T08:07:07;0.80;;;0.80;;
12663;SDS011;6396;58.490;15.528;2023-01-26T08:09:34;1.00;;;0.90;;
12663;SDS011;6396;58.490;15.528;2023-01-26T08:15:03;0.70;;;0.70;;
12663;SDS011;6396;58.490;15.528;2023-01-26T08:17:52;0.93;;;0.93;;
12663;SDS011;6396;58.490;15.528;2023-01-26T08:20:20;1.37;;;0.90;;
12663;SDS011;6396;58.490;15.528;2023-01-26T08:23:05;0.80;;;0.80;;
12663;SDS011;6396;58.490;15.528;2023-01-26T08:25:32;0.80;;;0.80;;
12663;SDS011;6396;58.490;15.528;2023-01-26T08:28:02;0.60;;;0.60;;
12663;SDS011;6396;58.490;15.528;2023-01-26T08:30:38;0.80;;;0.80;;
12663;SDS011;6396;58.490;15.528;2023-01-26T08:33:07;0.73;;;0.73;;
12663;SDS011;6396;58.490;15.528;2023-01-26T08:35:34;0.80;;;0.80;;
12663;SDS011;6396;58.490;15.528;2023-01-26T08:38:02;0.93;;;0.93;;
12663;SDS011;6396;58.490;15.528;2023-01-26T08:40:36;1.40;;;1.13;;
12663;SDS011;6396;58.490;15.528;2023-01-26T08:43:22;1.10;;;1.00;;
12663;SDS011;6396;58.490;15.528;2023-01-26T08:45:49;2.17;;;1.00;;
12663;SDS011;6396;58.490;15.528;2023-01-26T08:48:22;1.37;;;1.07;;
12663;SDS011;6396;58.490;15.528;2023-01-26T08:50:52;1.10;;;1.00;;
12663;SDS011;6396;58.490;15.528;2023-01-26T08:53:22;1.13;;;0.90;;
12663;SDS011;6396;58.490;15.528;2023-01-26T08:55:52;2.50;;;1.30;;
12663;SDS011;6396;58.490;15.528;2023-01-26T08:58:20;1.60;;;1.00;;
12663;SDS011;6396;58.490;15.528;2023-01-26T09:00:50;1.63;;;1.20;;
12663;SDS011;6396;58.490;15.528;2023-01-26T09:03:19;1.13;;;0.90;;
12663;SDS011;6396;58.490;15.528;2023-01-26T09:05:49;1.30;;;1.10;;
12663;SDS011;6396;58.490;15.528;2023-01-26T09:08:20;2.00;;;1.20;;
12663;SDS011;6396;58.490;15.528;2023-01-26T09:10:50;1.67;;;1.07;;
12663;SDS011;6396;58.490;15.528;2023-01-26T09:13:18;1.50;;;0.90;;
12663;SDS011;6396;58.490;15.528;2023-01-26T09:15:46;1.03;;;1.00;;
12663;SDS011;6396;58.490;15.528;2023-01-26T09:18:15;2.53;;;1.03;;
12663;SDS011;6396;58.490;15.528;2023-01-26T09:20:52;1.50;;;0.93;;
12663;SDS011;6396;58.490;15.528;2023-01-26T09:23:23;1.10;;;1.00;;
12663;SDS011;6396;58.490;15.528;2023-01-26T09:25:53;1.00;;;0.90;;
12663;SDS011;6396;58.490;15.528;2023-01-26T09:28:22;0.97;;;0.97;;
12663;SDS011;6396;58.490;15.528;2023-01-26T09:30:49;1.03;;;0.90;;
12663;SDS011;6396;58.490;15.528;2023-01-26T09:33:17;1.83;;;0.90;;
12663;SDS011;6396;58.490;15.528;2023-01-26T09:36:02;2.03;;;1.00;;
12663;SDS011;6396;58.490;15.528;2023-01-26T09:38:30;1.00;;;0.93;;
12663;SDS011;6396;58.490;15.528;2023-01-26T09:40:59;0.93;;;0.93;;
12663;SDS011;6396;58.490;15.528;2023-01-26T09:43:36;1.23;;;0.90;;
12663;SDS011;6396;58.490;15.528;2023-01-26T09:46:16;0.83;;;0.83;;
12663;SDS011;6396;58.490;15.528;2023-01-26T09:48:56;0.83;;;0.80;;
12663;SDS011;6396;58.490;15.528;2023-01-26T09:51:34;1.37;;;1.00;;
12663;SDS011;6396;58.490;15.528;2023-01-26T09:54:04;1.97;;;0.97;;
12663;SDS011;6396;58.490;15.528;2023-01-26T09:56:41;0.97;;;0.83;;
12663;SDS011;6396;58.490;15.528;2023-01-26T09:59:12;1.10;;;0.90;;
12663;SDS011;6396;58.490;15.528;2023-01-26T10:01:49;0.80;;;0.80;;
12663;SDS011;6396;58.490;15.528;2023-01-26T10:04:24;1.50;;;0.90;;
12663;SDS011;6396;58.490;15.528;2023-01-26T10:06:59;0.97;;;0.90;;
12663;SDS011;6396;58.490;15.528;2023-01-26T10:09:29;0.87;;;0.87;;
12663;SDS011;6396;58.490;15.528;2023-01-26T10:12:01;0.70;;;0.70;;
12663;SDS011;6396;58.490;15.528;2023-01-26T10:14:31;0.73;;;0.73;;
12663;SDS011;6396;58.490;15.528;2023-01-26T10:17:02;0.87;;;0.80;;
12663;SDS011;6396;58.490;15.528;2023-01-26T10:19:38;0.73;;;0.70;;
12663;SDS011;6396;58.490;15.528;2023-01-26T10:22:11;0.70;;;0.70;;
12663;SDS011;6396;58.490;15.528;2023-01-26T10:24:43;0.70;;;0.70;;
12663;SDS011;6396;58.490;15.528;2023-01-26T10:27:14;0.90;;;0.70;;
12663;SDS011;6396;58.490;15.528;2023-01-26T10:29:44;0.77;;;0.70;;
12663;SDS011;6396;58.490;15.528;2023-01-26T10:32:16;0.67;;;0.67;;
12663;SDS011;6396;58.490;15.528;2023-01-26T10:34:44;0.60;;;0.60;;
12663;SDS011;6396;58.490;15.528;2023-01-26T10:37:37;0.70;;;0.70;;
12663;SDS011;6396;58.490;15.528;2023-01-26T10:40:05;1.00;;;0.90;;
12663;SDS011;6396;58.490;15.528;2023-01-26T10:42:34;1.73;;;0.83;;
12663;SDS011;6396;58.490;15.528;2023-01-26T10:45:22;0.70;;;0.70;;
12663;SDS011;6396;58.490;15.528;2023-01-26T10:48:17;0.67;;;0.67;;
12663;SDS011;6396;58.490;15.528;2023-01-26T10:51:04;0.50;;;0.50;;
12663;SDS011;6396;58.490;15.528;2023-01-26T11:07:04;1.43;;;0.93;;
12663;SDS011;6396;58.490;15.528;2023-01-26T11:24:22;1.03;;;0.70;;
12663;SDS011;6396;58.490;15.528;2023-01-26T11:27:12;0.67;;;0.67;;
12663;SDS011;6396;58.490;15.528;2023-01-26T11:33:16;0.60;;;0.60;;
12663;SDS011;6396;58.490;15.528;2023-01-26T11:36:15;0.60;;;0.60;;
12663;SDS011;6396;58.490;15.528;2023-01-26T11:38:54;1.97;;;0.80;;
12663;SDS011;6396;58.490;15.528;2023-01-26T11:41:35;0.80;;;0.80;;
12663;SDS011;6396;58.490;15.528;2023-01-26T11:44:15;0.83;;;0.70;;
12663;SDS011;6396;58.490;15.528;2023-01-26T11:49:53;0.70;;;0.70;;
12663;SDS011;6396;58.490;15.528;2023-01-26T11:52:33;0.80;;;0.80;;
12663;SDS011;6396;58.490;15.528;2023-01-26T11:55:17;1.97;;;0.80;;
12663;SDS011;6396;58.490;15.528;2023-01-26T11:58:22;1.30;;;0.80;;
12663;SDS011;6396;58.490;15.528;2023-01-26T12:01:04;2.10;;;1.10;;
12663;SDS011;6396;58.490;15.528;2023-01-26T12:03:41;1.23;;;0.77;;
12663;SDS011;6396;58.490;15.528;2023-01-26T12:06:26;0.70;;;0.70;;
12663;SDS011;6396;58.490;15.528;2023-01-26T12:09:33;1.53;;;0.70;;
12663;SDS011;6396;58.490;15.528;2023-01-26T12:12:19;0.77;;;0.70;;
12663;SDS011;6396;58.490;15.528;2023-01-26T12:17:57;2.50;;;0.90;;
12663;SDS011;6396;58.490;15.528;2023-01-26T12:20:49;0.73;;;0.67;;
12663;SDS011;6396;58.490;15.528;2023-01-26T12:23:43;1.67;;;0.90;;
12663;SDS011;6396;58.490;15.528;2023-01-26T12:26:27;0.70;;;0.70;;
12663;SDS011;6396;58.490;15.528;2023-01-26T12:29:10;1.80;;;1.30;;
12663;SDS011;6396;58.490;15.528;2023-01-26T12:31:44;2.10;;;0.90;;
12663;SDS011;6396;58.490;15.528;2023-01-26T12:37:44;1.13;;;0.90;;
12663;SDS011;6396;58.490;15.528;2023-01-26T12:40:21;0.97;;;0.80;;
12663;SDS011;6396;58.490;15.528;2023-01-26T12:46:15;1.77;;;0.77;;
12663;SDS011;6396;58.490;15.528;2023-01-26T12:52:03;2.47;;;0.80;;
12663;SDS011;6396;58.490;15.528;2023-01-26T12:55:38;1.13;;;0.90;;
12663;SDS011;6396;58.490;15.528;2023-01-26T12:58:10;2.10;;;0.80;;
12663;SDS011;6396;58.490;15.528;2023-01-26T13:00:47;0.80;;;0.80;;
12663;SDS011;6396;58.490;15.528;2023-01-26T13:06:45;1.53;;;0.90;;
12663;SDS011;6396;58.490;15.528;2023-01-26T13:41:13;0.80;;;0.80;;
12663;SDS011;6396;58.490;15.528;2023-01-26T13:43:45;1.23;;;0.70;;
12663;SDS011;6396;58.490;15.528;2023-01-26T13:46:17;2.00;;;0.87;;
12663;SDS011;6396;58.490;15.528;2023-01-26T13:48:51;1.87;;;0.77;;
12663;SDS011;6396;58.490;15.528;2023-01-26T13:51:19;1.40;;;1.10;;
12663;SDS011;6396;58.490;15.528;2023-01-26T13:53:52;1.70;;;0.80;;
12663;SDS011;6396;58.490;15.528;2023-01-26T13:56:26;1.37;;;0.90;;
12663;SDS011;6396;58.490;15.528;2023-01-26T13:59:05;1.87;;;0.80;;
12663;SDS011;6396;58.490;15.528;2023-01-26T14:01:42;2.57;;;0.90;;
12663;SDS011;6396;58.490;15.528;2023-01-26T14:04:26;0.90;;;0.70;;
12663;SDS011;6396;58.490;15.528;2023-01-26T14:07:11;1.77;;;0.90;;
12663;SDS011;6396;58.490;15.528;2023-01-26T14:09:52;2.43;;;0.97;;
12663;SDS011;6396;58.490;15.528;2023-01-26T14:12:26;1.80;;;0.90;;
12663;SDS011;6396;58.490;15.528;2023-01-26T14:14:56;2.67;;;0.90;;
12663;SDS011;6396;58.490;15.528;2023-01-26T14:17:26;1.33;;;0.90;;
12663;SDS011;6396;58.490;15.528;2023-01-26T14:19:55;1.00;;;0.87;;
12663;SDS011;6396;58.490;15.528;2023-01-26T14:22:24;2.17;;;0.90;;
12663;SDS011;6396;58.490;15.528;2023-01-26T14:24:51;0.97;;;0.80;;
12663;SDS011;6396;58.490;15.528;2023-01-26T14:27:29;2.37;;;1.10;;
12663;SDS011;6396;58.490;15.528;2023-01-26T14:30:24;3.33;;;1.33;;
12663;SDS011;6396;58.490;15.528;2023-01-26T14:32:54;1.53;;;0.80;;
12663;SDS011;6396;58.490;15.528;2023-01-26T14:35:25;0.90;;;0.83;;
12663;SDS011;6396;58.490;15.528;2023-01-26T14:38:03;3.10;;;0.80;;
12663;SDS011;6396;58.490;15.528;2023-01-26T14:40:31;2.23;;;0.90;;
12663;SDS011;6396;58.490;15.528;2023-01-26T14:43:00;0.83;;;0.73;;
12663;SDS011;6396;58.490;15.528;2023-01-26T14:45:27;2.00;;;0.80;;
12663;SDS011;6396;58.490;15.528;2023-01-26T14:47:57;2.17;;;0.90;;
12663;SDS011;6396;58.490;15.528;2023-01-26T14:50:34;1.27;;;0.73;;
12663;SDS011;6396;58.490;15.528;2023-01-26T14:57:25;2.13;;;0.90;;
12663;SDS011;6396;58.490;15.528;2023-01-26T15:06:39;1.23;;;0.80;;
12663;SDS011;6396;58.490;15.528;2023-01-26T15:09:18;2.83;;;0.90;;
12663;SDS011;6396;58.490;15.528;2023-01-26T15:11:52;4.70;;;1.07;;
12663;SDS011;6396;58.490;15.528;2023-01-26T15:14:45;2.43;;;0.90;;
12663;SDS011;6396;58.490;15.528;2023-01-26T15:23:10;1.50;;;0.80;;
12663;SDS011;6396;58.490;15.528;2023-01-26T15:25:47;1.90;;;0.90;;
12663;SDS011;6396;58.490;15.528;2023-01-26T15:28:15;3.60;;;0.90;;
12663;SDS011;6396;58.490;15.528;2023-01-26T15:30:51;3.03;;;1.00;;
12663;SDS011;6396;58.490;15.528;2023-01-26T15:33:36;3.63;;;1.40;;
12663;SDS011;6396;58.490;15.528;2023-01-26T15:36:05;2.63;;;1.03;;
12663;SDS011;6396;58.490;15.528;2023-01-26T15:38:52;2.13;;;0.90;;
12663;SDS011;6396;58.490;15.528;2023-01-26T15:41:24;9.27;;;1.40;;
12663;SDS011;6396;58.490;15.528;2023-01-26T15:43:51;3.23;;;1.00;;
12663;SDS011;6396;58.490;15.528;2023-01-26T15:46:18;1.70;;;1.00;;
12663;SDS011;6396;58.490;15.528;2023-01-26T15:48:45;1.17;;;0.70;;
12663;SDS011;6396;58.490;15.528;2023-01-26T15:51:11;3.77;;;1.00;;
12663;SDS011;6396;58.490;15.528;2023-01-26T15:53:39;1.40;;;0.80;;
12663;SDS011;6396;58.490;15.528;2023-01-26T15:56:11;1.40;;;1.00;;
12663;SDS011;6396;58.490;15.528;2023-01-26T15:58:39;4.93;;;1.40;;
12663;SDS011;6396;58.490;15.528;2023-01-26T16:01:06;3.77;;;1.00;;
12663;SDS011;6396;58.490;15.528;2023-01-26T16:03:38;3.87;;;0.97;;
12663;SDS011;6396;58.490;15.528;2023-01-26T16:06:05;1.13;;;0.70;;
12663;SDS011;6396;58.490;15.528;2023-01-26T16:08:32;1.17;;;0.80;;
12663;SDS011;6396;58.490;15.528;2023-01-26T16:10:58;1.30;;;0.70;;
12663;SDS011;6396;58.490;15.528;2023-01-26T16:13:27;2.23;;;1.00;;
12663;SDS011;6396;58.490;15.528;2023-01-26T16:15:53;0.70;;;0.60;;
12663;SDS011;6396;58.490;15.528;2023-01-26T16:18:20;2.43;;;1.00;;
12663;SDS011;6396;58.490;15.528;2023-01-26T16:20:48;1.83;;;0.93;;
12663;SDS011;6396;58.490;15.528;2023-01-26T16:23:16;2.77;;;0.90;;
12663;SDS011;6396;58.490;15.528;2023-01-26T16:25:44;2.20;;;0.93;;
12663;SDS011;6396;58.490;15.528;2023-01-26T16:28:11;1.50;;;0.80;;
12663;SDS011;6396;58.490;15.528;2023-01-26T16:30:39;0.90;;;0.90;;
12663;SDS011;6396;58.490;15.528;2023-01-26T16:33:10;1.43;;;0.90;;
12663;SDS011;6396;58.490;15.528;2023-01-26T16:35:38;1.90;;;1.10;;
12663;SDS011;6396;58.490;15.528;2023-01-26T16:38:05;2.03;;;0.90;;
12663;SDS011;6396;58.490;15.528;2023-01-26T16:40:36;2.07;;;0.83;;
12663;SDS011;6396;58.490;15.528;2023-01-26T16:46:09;2.73;;;0.97;;
12663;SDS011;6396;58.490;15.528;2023-01-26T16:48:38;2.87;;;0.73;;
12663;SDS011;6396;58.490;15.528;2023-01-26T16:51:11;2.07;;;0.97;;
12663;SDS011;6396;58.490;15.528;2023-01-26T16:53:42;2.80;;;1.10;;
12663;SDS011;6396;58.490;15.528;2023-01-26T16:56:09;3.73;;;1.03;;
12663;SDS011;6396;58.490;15.528;2023-01-26T16:58:39;4.70;;;1.07;;
12663;SDS011;6396;58.490;15.528;2023-01-26T17:01:17;2.03;;;1.00;;
12663;SDS011;6396;58.490;15.528;2023-01-26T17:03:47;1.87;;;1.03;;
12663;SDS011;6396;58.490;15.528;2023-01-26T17:06:17;1.63;;;0.83;;
12663;SDS011;6396;58.490;15.528;2023-01-26T17:08:45;2.33;;;0.80;;
12663;SDS011;6396;58.490;15.528;2023-01-26T17:11:13;1.00;;;0.90;;
12663;SDS011;6396;58.490;15.528;2023-01-26T17:13:45;3.13;;;0.97;;
12663;SDS011;6396;58.490;15.528;2023-01-26T17:16:13;3.50;;;0.90;;
12663;SDS011;6396;58.490;15.528;2023-01-26T17:18:43;5.70;;;0.97;;
12663;SDS011;6396;58.490;15.528;2023-01-26T17:21:10;3.37;;;1.10;;
12663;SDS011;6396;58.490;15.528;2023-01-26T17:23:38;2.80;;;0.90;;
12663;SDS011;6396;58.490;15.528;2023-01-26T17:26:08;5.47;;;1.37;;
12663;SDS011;6396;58.490;15.528;2023-01-26T17:28:38;1.10;;;1.00;;
12663;SDS011;6396;58.490;15.528;2023-01-26T17:55:34;2.13;;;1.00;;
12663;SDS011;6396;58.490;15.528;2023-01-26T18:25:38;2.03;;;1.17;;
12663;SDS011;6396;58.490;15.528;2023-01-26T18:28:10;1.60;;;1.30;;
12663;SDS011;6396;58.490;15.528;2023-01-26T18:30:37;1.10;;;1.00;;
12663;SDS011;6396;58.490;15.528;2023-01-26T18:33:05;2.40;;;1.00;;
12663;SDS011;6396;58.490;15.528;2023-01-26T18:35:32;2.67;;;1.10;;
12663;SDS011;6396;58.490;15.528;2023-01-26T18:37:59;1.60;;;0.90;;
12663;SDS011;6396;58.490;15.528;2023-01-26T18:40:29;1.77;;;1.00;;
12663;SDS011;6396;58.490;15.528;2023-01-26T18:42:59;1.40;;;1.07;;
12663;SDS011;6396;58.490;15.528;2023-01-26T18:45:26;1.67;;;0.90;;
12663;SDS011;6396;58.490;15.528;2023-01-26T18:47:54;1.80;;;0.90;;
12663;SDS011;6396;58.490;15.528;2023-01-26T18:50:21;3.37;;;1.10;;
12663;SDS011;6396;58.490;15.528;2023-01-26T18:53:02;2.53;;;1.00;;
12663;SDS011;6396;58.490;15.528;2023-01-26T18:55:45;2.47;;;1.00;;
12663;SDS011;6396;58.490;15.528;2023-01-26T18:58:23;1.80;;;0.97;;
12663;SDS011;6396;58.490;15.528;2023-01-26T19:01:12;2.07;;;1.00;;
12663;SDS011;6396;58.490;15.528;2023-01-26T19:06:53;1.10;;;0.93;;
12663;SDS011;6396;58.490;15.528;2023-01-26T19:09:48;2.40;;;1.20;;
12663;SDS011;6396;58.490;15.528;2023-01-26T19:12:15;3.23;;;1.50;;
12663;SDS011;6396;58.490;15.528;2023-01-26T19:14:44;6.17;;;1.30;;
12663;SDS011;6396;58.490;15.528;2023-01-26T19:17:11;2.17;;;1.17;;
12663;SDS011;6396;58.490;15.528;2023-01-26T19:19:37;1.97;;;1.37;;
12663;SDS011;6396;58.490;15.528;2023-01-26T19:22:06;3.07;;;1.37;;
12663;SDS011;6396;58.490;15.528;2023-01-26T19:24:33;1.73;;;1.13;;
12663;SDS011;6396;58.490;15.528;2023-01-26T19:26:59;2.73;;;1.20;;
12663;SDS011;6396;58.490;15.528;2023-01-26T19:29:27;2.87;;;1.33;;
12663;SDS011;6396;58.490;15.528;2023-01-26T19:31:56;2.73;;;1.00;;
12663;SDS011;6396;58.490;15.528;2023-01-26T19:34:23;2.67;;;1.30;;
12663;SDS011;6396;58.490;15.528;2023-01-26T19:36:52;1.83;;;1.20;;
12663;SDS011;6396;58.490;15.528;2023-01-26T19:39:19;2.73;;;1.33;;
12663;SDS011;6396;58.490;15.528;2023-01-26T19:41:46;2.63;;;1.20;;
12663;SDS011;6396;58.490;15.528;2023-01-26T19:44:14;1.77;;;1.00;;
12663;SDS011;6396;58.490;15.528;2023-01-26T19:46:42;3.90;;;1.37;;
12663;SDS011;6396;58.490;15.528;2023-01-26T19:49:11;1.93;;;1.10;;
12663;SDS011;6396;58.490;15.528;2023-01-26T19:51:40;1.30;;;1.10;;
12663;SDS011;6396;58.490;15.528;2023-01-26T19:54:07;3.37;;;1.27;;
12663;SDS011;6396;58.490;15.528;2023-01-26T19:56:34;1.27;;;1.13;;
12663;SDS011;6396;58.490;15.528;2023-01-26T19:59:02;2.83;;;1.10;;
12663;SDS011;6396;58.490;15.528;2023-01-26T20:01:30;2.77;;;1.40;;
12663;SDS011;6396;58.490;15.528;2023-01-26T20:03:59;2.63;;;1.40;;
12663;SDS011;6396;58.490;15.528;2023-01-26T20:06:29;1.47;;;1.17;;
12663;SDS011;6396;58.490;15.528;2023-01-26T20:08:57;2.73;;;1.43;;
12663;SDS011;6396;58.490;15.528;2023-01-26T20:11:24;3.10;;;1.20;;
12663;SDS011;6396;58.490;15.528;2023-01-26T20:13:53;2.73;;;1.57;;
12663;SDS011;6396;58.490;15.528;2023-01-26T20:16:21;2.47;;;1.67;;
12663;SDS011;6396;58.490;15.528;2023-01-26T20:18:48;2.53;;;1.70;;
12663;SDS011;6396;58.490;15.528;2023-01-26T20:21:15;3.80;;;1.83;;
12663;SDS011;6396;58.490;15.528;2023-01-26T20:23:43;3.03;;;1.47;;
12663;SDS011;6396;58.490;15.528;2023-01-26T20:26:10;1.63;;;1.30;;
12663;SDS011;6396;58.490;15.528;2023-01-26T20:28:37;3.07;;;1.50;;
12663;SDS011;6396;58.490;15.528;2023-01-26T20:31:06;3.00;;;1.43;;
12663;SDS011;6396;58.490;15.528;2023-01-26T20:33:39;3.43;;;1.50;;
12663;SDS011;6396;58.490;15.528;2023-01-26T20:36:06;4.17;;;1.77;;
12663;SDS011;6396;58.490;15.528;2023-01-26T20:38:35;3.40;;;1.90;;
12663;SDS011;6396;58.490;15.528;2023-01-26T20:41:06;3.20;;;1.43;;
12663;SDS011;6396;58.490;15.528;2023-01-26T20:43:35;3.07;;;1.50;;
12663;SDS011;6396;58.490;15.528;2023-01-26T20:46:03;1.90;;;1.20;;
12663;SDS011;6396;58.490;15.528;2023-01-26T20:48:30;3.17;;;1.50;;